createdAt,value
2023-01-11T00:01:02.776Z,100563.22
2023-01-11T00:01:42.800Z,100542.06
2023-01-11T00:02:22.767Z,100560.84
2023-01-11T00:03:08.826Z,100561.00
2023-01-11T00:03:48.703Z,100563.13
2023-01-11T00:04:30.679Z,100538.41
2023-01-11T00:05:11.740Z,100550.09
2023-01-11T00:05:51.830Z,100562.16
2023-01-11T00:06:31.754Z,100555.69
2023-01-11T00:07:11.909Z,100558.78
2023-01-11T00:07:51.726Z,100555.94
2023-01-11T00:08:34.054Z,100555.25
2023-01-11T00:09:14.692Z,100548.63
2023-01-11T00:09:54.772Z,100559.16
2023-01-11T00:10:35.714Z,100554.28
2023-01-11T00:11:20.780Z,100555.69
2023-01-11T00:12:01.732Z,100533.19
2023-01-11T00:12:41.806Z,100535.31
2023-01-11T00:13:21.702Z,100540.84
2023-01-11T00:14:02.766Z,100545.81
2023-01-11T00:14:42.721Z,100564.31
2023-01-11T00:15:23.771Z,100550.75
2023-01-11T00:16:04.738Z,100551.13
2023-01-11T00:16:44.774Z,100553.31
2023-01-11T00:17:24.738Z,100551.69
2023-01-11T00:18:04.938Z,100544.31
2023-01-11T00:18:47.739Z,100560.59
2023-01-11T00:19:27.781Z,100546.69
2023-01-11T00:20:07.725Z,100566.72
2023-01-11T00:20:48.756Z,100556.16
2023-01-11T00:21:28.710Z,100554.38
2023-01-11T00:22:08.817Z,100534.84
2023-01-11T00:22:49.697Z,100549.59
2023-01-11T00:23:29.762Z,100553.31
2023-01-11T00:24:09.706Z,100549.78
2023-01-11T00:24:49.825Z,100559.81
2023-01-11T00:25:29.697Z,100550.22
2023-01-11T00:26:13.378Z,100542.16
2023-01-11T00:26:53.721Z,100547.53
2023-01-11T00:27:33.790Z,100561.75
2023-01-11T00:28:13.764Z,100548.50
2023-01-11T00:28:57.919Z,100562.59
2023-01-11T00:29:37.685Z,100557.69
2023-01-11T00:30:18.787Z,100562.22
2023-01-11T00:30:59.773Z,100562.50
2023-01-11T00:31:39.767Z,100550.16
2023-01-11T00:32:19.706Z,100548.50
2023-01-11T00:33:04.842Z,100564.88
2023-01-11T00:33:44.701Z,100535.50
2023-01-11T00:34:26.760Z,100547.88
2023-01-11T00:35:07.674Z,100544.31
2023-01-11T00:35:47.763Z,100544.31
2023-01-11T00:36:27.681Z,100551.41
2023-01-11T00:37:07.868Z,100560.44
2023-01-11T00:37:47.714Z,100538.78
2023-01-11T00:38:52.712Z,100549.88
2023-01-11T00:39:27.478Z,100543.19
2023-01-11T00:40:14.675Z,100564.38
2023-01-11T00:40:48.596Z,100556.50
2023-01-11T00:41:54.667Z,100534.34
2023-01-11T00:42:47.014Z,100535.31
2023-01-11T00:43:51.706Z,100540.13
2023-01-11T00:44:51.687Z,100541.88
2023-01-11T00:45:50.420Z,100564.44
2023-01-11T00:46:49.728Z,100542.75
2023-01-11T00:47:48.499Z,100553.34
2023-01-11T00:48:28.666Z,100549.94
2023-01-11T00:49:16.709Z,100561.88
2023-01-11T00:49:50.385Z,100563.31
2023-01-11T00:50:43.133Z,100552.66
2023-01-11T00:51:23.582Z,100558.50
2023-01-11T00:52:13.807Z,100563.97
2023-01-11T00:52:48.658Z,100556.00
2023-01-11T00:53:36.649Z,100536.97
2023-01-11T00:54:15.483Z,100558.28
2023-01-11T00:54:56.712Z,100559.81
2023-01-11T00:55:33.852Z,100538.06
2023-01-11T00:56:07.639Z,100537.41
2023-01-11T00:56:54.561Z,100548.81
2023-01-11T00:57:31.803Z,100551.19
2023-01-11T00:58:08.583Z,100559.06
2023-01-11T00:58:48.798Z,100574.66
2023-01-11T00:59:29.844Z,100570.38
2023-01-11T01:00:10.686Z,100544.50
2023-01-11T01:00:50.752Z,100548.31
2023-01-11T01:01:31.682Z,100560.66
2023-01-11T01:02:11.823Z,100543.66
2023-01-11T01:02:52.718Z,100572.28
2023-01-11T01:03:32.769Z,100558.28
2023-01-11T01:04:12.699Z,100562.03
2023-01-11T01:04:52.785Z,100551.59
2023-01-11T01:05:33.719Z,100564.63
2023-01-11T01:06:13.730Z,100550.56
2023-01-11T01:06:53.674Z,100562.72
2023-01-11T01:07:33.727Z,100570.38
2023-01-11T01:08:13.637Z,100560.88
2023-01-11T01:08:53.756Z,100573.72
2023-01-11T01:09:35.670Z,100574.59
2023-01-11T01:10:19.001Z,100572.50
2023-01-11T01:10:59.697Z,100576.03
2023-01-11T01:11:39.709Z,100572.78
2023-01-11T01:12:39.663Z,100567.69
2023-01-11T01:13:38.236Z,100571.16
2023-01-11T01:14:37.663Z,100572.66
2023-01-11T01:15:18.683Z,100564.91
2023-01-11T01:16:04.681Z,100569.03
2023-01-11T01:16:46.196Z,100569.41
2023-01-11T01:17:26.656Z,100570.22
2023-01-11T01:18:07.796Z,100563.03
2023-01-11T01:18:48.665Z,100557.09
2023-01-11T01:19:29.768Z,100553.66
2023-01-11T01:20:10.644Z,100547.41
2023-01-11T01:20:50.753Z,100564.44
2023-01-11T01:21:32.644Z,100563.31
2023-01-11T01:22:12.913Z,100555.47
2023-01-11T01:22:54.663Z,100543.19
2023-01-11T01:23:34.743Z,100560.63
2023-01-11T01:24:14.634Z,100538.00
2023-01-11T01:24:54.711Z,100563.88
2023-01-11T01:25:34.660Z,100528.53
2023-01-11T01:26:14.748Z,100558.69
2023-01-11T01:26:55.644Z,100553.53
2023-01-11T01:27:35.696Z,100562.34
2023-01-11T01:28:15.638Z,100556.22
2023-01-11T01:28:56.724Z,100535.47
2023-01-11T01:29:36.645Z,100550.47
2023-01-11T01:30:17.709Z,100553.81
2023-01-11T01:30:59.648Z,100541.69
2023-01-11T01:31:40.224Z,100548.97
2023-01-11T01:32:20.638Z,100542.16
2023-01-11T01:33:00.779Z,100552.78
2023-01-11T01:33:41.600Z,100533.66
2023-01-11T01:34:22.726Z,100550.09
2023-01-11T01:35:03.617Z,100559.88
2023-01-11T01:35:44.695Z,100527.41
2023-01-11T01:36:24.651Z,100548.84
2023-01-11T01:37:04.711Z,100552.50
2023-01-11T01:37:44.715Z,100549.81
2023-01-11T01:38:24.913Z,100533.44
2023-01-11T01:39:08.668Z,100548.16
2023-01-11T01:39:49.724Z,100548.00
2023-01-11T01:40:29.628Z,100543.03
2023-01-11T01:41:10.695Z,100528.53
2023-01-11T01:41:50.643Z,100539.25
2023-01-11T01:42:31.735Z,100521.84
2023-01-11T01:43:21.659Z,100535.16
2023-01-11T01:44:07.658Z,100549.81
2023-01-11T01:45:21.614Z,100529.03
2023-01-11T01:46:01.737Z,100527.13
2023-01-11T01:46:41.618Z,100533.16
2023-01-11T01:47:21.663Z,100537.47
2023-01-11T01:48:09.600Z,100556.84
2023-01-11T01:48:57.660Z,100544.78
2023-01-11T01:49:37.782Z,100537.59
2023-01-11T01:50:39.660Z,100554.16
2023-01-11T01:51:25.676Z,100540.09
2023-01-11T01:52:06.608Z,100550.72
2023-01-11T01:52:47.753Z,100545.63
2023-01-11T01:53:51.590Z,100537.28
2023-01-11T01:54:38.624Z,100541.34
2023-01-11T01:55:17.723Z,100538.06
2023-01-11T01:56:08.626Z,100512.41
2023-01-11T01:56:52.782Z,100535.66
2023-01-11T01:57:42.602Z,100514.31
2023-01-11T01:58:20.715Z,100510.97
2023-01-11T01:59:15.685Z,100536.25
2023-01-11T01:59:58.612Z,100521.19
2023-01-11T02:00:54.589Z,100527.06
2023-01-11T02:01:53.701Z,100529.81
2023-01-11T02:02:48.617Z,100524.66
2023-01-11T02:03:42.608Z,100523.69
2023-01-11T02:04:55.666Z,100534.25
2023-01-11T02:05:36.659Z,100520.34
2023-01-11T02:06:17.637Z,100517.88
2023-01-11T02:07:05.577Z,100527.06
2023-01-11T02:07:46.673Z,100541.22
2023-01-11T02:08:43.598Z,100520.44
2023-01-11T02:09:42.699Z,100534.44
2023-01-11T02:10:28.590Z,100520.94
2023-01-11T02:11:10.603Z,100522.94
2023-01-11T02:11:45.660Z,100508.88
2023-01-11T02:12:41.584Z,100530.31
2023-01-11T02:13:17.645Z,100525.59
2023-01-11T02:14:15.589Z,100533.84
2023-01-11T02:14:50.713Z,100510.22
2023-01-11T02:15:38.737Z,100534.25
2023-01-11T02:16:19.677Z,100516.53
2023-01-11T02:17:13.597Z,100516.16
2023-01-11T02:18:07.579Z,100536.94
2023-01-11T02:19:01.601Z,100534.63
2023-01-11T02:20:21.572Z,100536.16
2023-01-11T02:21:40.601Z,100521.78
2023-01-11T02:23:17.558Z,100533.50
2023-01-11T02:24:39.577Z,100536.06
2023-01-11T02:26:23.576Z,100525.81
2023-01-11T02:27:31.595Z,100524.94
2023-01-11T02:28:23.681Z,100516.41
2023-01-11T02:29:24.604Z,100498.25
2023-01-11T02:30:33.662Z,100515.25
2023-01-11T02:31:19.736Z,100513.16
2023-01-11T02:32:17.660Z,100511.63
2023-01-11T02:33:39.567Z,100513.91
2023-01-11T02:34:38.714Z,100516.00
2023-01-11T02:35:51.607Z,100497.16
2023-01-11T02:37:07.643Z,100523.22
2023-01-11T02:38:33.573Z,100512.69
2023-01-11T02:39:51.572Z,100508.09
2023-01-11T02:40:43.779Z,100501.88
2023-01-11T02:42:09.559Z,100511.44
2023-01-11T02:43:11.490Z,100496.69
2023-01-11T02:44:30.586Z,100514.31
2023-01-11T02:45:49.579Z,100506.66
2023-01-11T02:46:49.627Z,100496.22
2023-01-11T02:48:17.594Z,100519.59
2023-01-11T02:49:28.557Z,100505.88
2023-01-11T02:50:43.663Z,100507.59
2023-01-11T02:51:33.573Z,100508.50
2023-01-11T02:52:26.601Z,100490.56
2023-01-11T02:53:34.604Z,100509.25
2023-01-11T02:54:18.614Z,100509.53
2023-01-11T02:55:03.566Z,100504.75
2023-01-11T02:55:49.671Z,100503.53
2023-01-11T02:56:34.574Z,100504.91
2023-01-11T02:57:15.712Z,100513.75
2023-01-11T02:57:57.543Z,100469.22
2023-01-11T02:58:41.594Z,100467.88
2023-01-11T02:59:30.542Z,100511.63
2023-01-11T03:00:11.606Z,100502.56
2023-01-11T03:00:53.537Z,100509.75
2023-01-11T03:01:33.725Z,100485.69
2023-01-11T03:02:13.642Z,100487.13
2023-01-11T03:03:27.701Z,100496.50
2023-01-11T03:04:07.545Z,100486.75
2023-01-11T03:04:47.641Z,100474.31
2023-01-11T03:05:28.554Z,100495.72
2023-01-11T03:06:25.646Z,100494.78
2023-01-11T03:07:52.621Z,100485.97
2023-01-11T03:08:51.601Z,100494.13
2023-01-11T03:09:54.529Z,100489.03
2023-01-11T03:10:35.574Z,100489.16
2023-01-11T03:12:06.517Z,100485.03
2023-01-11T03:13:32.661Z,100477.19
2023-01-11T03:14:42.551Z,100472.22
2023-01-11T03:16:14.545Z,100469.88
2023-01-11T03:17:28.534Z,100433.03
2023-01-11T03:19:07.537Z,100479.25
2023-01-11T03:20:05.521Z,100476.97
2023-01-11T03:21:05.521Z,100465.44
2023-01-11T03:22:20.502Z,100481.16
2023-01-11T03:23:20.502Z,100481.34
2023-01-11T03:24:40.536Z,100485.00
2023-01-11T03:25:49.485Z,100478.19
2023-01-11T03:27:03.532Z,100456.97
2023-01-11T03:28:23.569Z,100453.38
2023-01-11T03:29:30.524Z,100470.88
2023-01-11T03:30:27.576Z,100464.00
2023-01-11T03:31:27.634Z,100471.00
2023-01-11T03:32:22.482Z,100468.88
2023-01-11T03:33:15.575Z,100441.13
2023-01-11T03:34:23.512Z,100467.38
2023-01-11T03:35:34.574Z,100468.50
2023-01-11T03:36:36.490Z,100441.59
2023-01-11T03:37:40.494Z,100453.88
2023-01-11T03:38:46.503Z,100451.13
2023-01-11T03:39:57.494Z,100445.94
2023-01-11T03:41:14.547Z,100451.88
2023-01-11T03:42:12.470Z,100446.91
2023-01-11T03:43:17.487Z,100465.66
2023-01-11T03:44:15.484Z,100458.38
2023-01-11T03:45:11.510Z,100436.28
2023-01-11T03:46:24.593Z,100461.09
2023-01-11T03:47:21.500Z,100456.88
2023-01-11T03:48:17.483Z,100448.13
2023-01-11T03:49:39.473Z,100471.59
2023-01-11T03:50:33.479Z,100449.88
2023-01-11T03:51:31.523Z,100459.53
2023-01-11T03:52:28.500Z,100450.16
2023-01-11T03:53:24.478Z,100443.63
2023-01-11T03:54:21.511Z,100450.16
2023-01-11T03:55:18.487Z,100453.69
2023-01-11T03:56:13.459Z,100446.81
2023-01-11T03:57:24.477Z,100433.88
2023-01-11T03:58:04.513Z,100460.47
2023-01-11T03:58:45.463Z,100441.34
2023-01-11T03:59:25.537Z,100441.50
2023-01-11T04:00:06.470Z,100452.22
2023-01-11T04:00:47.579Z,100443.59
2023-01-11T04:01:27.483Z,100440.78
2023-01-11T04:02:08.532Z,100452.69
2023-01-11T04:02:49.493Z,100437.84
2023-01-11T04:03:29.533Z,100446.84
2023-01-11T04:04:10.515Z,100454.31
2023-01-11T04:04:51.541Z,100442.50
2023-01-11T04:05:32.472Z,100448.47
2023-01-11T04:06:13.548Z,100423.56
2023-01-11T04:06:54.516Z,100424.81
2023-01-11T04:07:35.540Z,100438.09
2023-01-11T04:08:17.542Z,100428.50
2023-01-11T04:08:57.504Z,100455.59
2023-01-11T04:09:38.341Z,100454.66
2023-01-11T04:10:18.516Z,100431.88
2023-01-11T04:10:58.489Z,100444.91
2023-01-11T04:11:38.550Z,100442.47
2023-01-11T04:12:19.470Z,100457.13
2023-01-11T04:12:59.600Z,100447.31
2023-01-11T04:13:40.507Z,100443.34
2023-01-11T04:14:20.510Z,100442.38
2023-01-11T04:15:00.480Z,100439.72
2023-01-11T04:15:40.507Z,100431.69
2023-01-11T04:16:20.507Z,100441.25
2023-01-11T04:17:00.574Z,100423.06
2023-01-11T04:17:40.453Z,100445.50
2023-01-11T04:18:20.557Z,100429.00
2023-01-11T04:19:00.477Z,100430.56
2023-01-11T04:19:41.548Z,100417.63
2023-01-11T04:20:22.447Z,100441.44
2023-01-11T04:21:02.549Z,100413.16
2023-01-11T04:21:42.451Z,100418.28
2023-01-11T04:22:22.502Z,100433.22
2023-01-11T04:23:02.461Z,100431.50
2023-01-11T04:23:42.535Z,100431.09
2023-01-11T04:24:24.454Z,100416.63
2023-01-11T04:25:04.519Z,100434.63
2023-01-11T04:25:44.450Z,100429.38
2023-01-11T04:26:24.528Z,100421.97
2023-01-11T04:27:04.472Z,100425.13
2023-01-11T04:27:44.622Z,100418.16
2023-01-11T04:28:24.443Z,100407.13
2023-01-11T04:29:04.548Z,100408.69
2023-01-11T04:29:45.447Z,100417.69
2023-01-11T04:30:25.525Z,100416.63
2023-01-11T04:31:05.455Z,100392.88
2023-01-11T04:31:45.543Z,100392.00
2023-01-11T04:32:25.438Z,100414.41
2023-01-11T04:33:06.516Z,100414.56
2023-01-11T04:33:46.464Z,100396.50
2023-01-11T04:34:26.532Z,100407.09
2023-01-11T04:35:06.467Z,100401.28
2023-01-11T04:35:46.571Z,100384.06
2023-01-11T04:36:26.436Z,100405.63
2023-01-11T04:37:06.544Z,100402.59
2023-01-11T04:37:47.454Z,100402.44
2023-01-11T04:38:27.541Z,100380.34
2023-01-11T04:39:07.426Z,100409.94
2023-01-11T04:39:47.494Z,100396.34
2023-01-11T04:40:28.448Z,100405.81
2023-01-11T04:41:27.113Z,100388.72
2023-01-11T04:42:26.410Z,100397.00
2023-01-11T04:43:06.493Z,100390.28
2023-01-11T04:43:47.422Z,100410.31
2023-01-11T04:44:27.506Z,100412.44
2023-01-11T04:45:07.433Z,100401.31
2023-01-11T04:45:47.533Z,100406.94
2023-01-11T04:46:21.480Z,100396.06
2023-01-11T04:47:08.412Z,100400.22
2023-01-11T04:47:42.476Z,100400.56
2023-01-11T04:48:29.476Z,100412.38
2023-01-11T04:49:03.469Z,100413.03
2023-01-11T04:49:51.404Z,100405.22
2023-01-11T04:50:25.529Z,100391.75
2023-01-11T04:51:16.444Z,100408.66
2023-01-11T04:51:50.530Z,100392.09
2023-01-11T04:52:37.461Z,100410.97
2023-01-11T04:53:11.490Z,100412.03
2023-01-11T04:53:58.451Z,100410.97
2023-01-11T04:54:32.504Z,100397.19
2023-01-11T04:55:19.420Z,100407.69
2023-01-11T04:55:53.590Z,100393.91
2023-01-11T04:56:41.426Z,100401.94
2023-01-11T04:57:19.536Z,100400.63
2023-01-11T04:58:06.407Z,100393.56
2023-01-11T04:58:42.488Z,100400.22
2023-01-11T04:59:29.408Z,100392.69
2023-01-11T05:00:06.152Z,100390.19
2023-01-11T05:00:53.432Z,100383.91
2023-01-11T05:01:27.546Z,100398.06
2023-01-11T05:02:07.433Z,100369.09
2023-01-11T05:02:47.511Z,100382.16
2023-01-11T05:03:27.394Z,100389.06
2023-01-11T05:04:07.488Z,100372.19
2023-01-11T05:04:48.427Z,100391.00
2023-01-11T05:05:28.476Z,100387.72
2023-01-11T05:06:09.411Z,100376.66
2023-01-11T05:06:49.477Z,100381.94
2023-01-11T05:07:29.414Z,100384.00
2023-01-11T05:08:09.521Z,100399.59
2023-01-11T05:08:53.397Z,100393.06
2023-01-11T05:09:33.464Z,100382.88
2023-01-11T05:10:14.423Z,100387.88
2023-01-11T05:11:02.549Z,100386.69
2023-01-11T05:11:42.400Z,100380.38
2023-01-11T05:12:22.465Z,100377.25
2023-01-11T05:13:03.453Z,100371.66
2023-01-11T05:13:43.593Z,100377.88
2023-01-11T05:14:24.382Z,100391.50
2023-01-11T05:15:04.530Z,100376.34
2023-01-11T05:15:44.375Z,100374.25
2023-01-11T05:16:30.600Z,100366.50
2023-01-11T05:17:11.441Z,100367.72
2023-01-11T05:17:51.509Z,100367.88
2023-01-11T05:18:31.407Z,100385.22
2023-01-11T05:19:12.498Z,100379.88
2023-01-11T05:19:52.371Z,100369.44
2023-01-11T05:20:32.459Z,100376.16
2023-01-11T05:21:13.439Z,100377.00
2023-01-11T05:21:54.498Z,100366.84
2023-01-11T05:22:34.387Z,100378.91
2023-01-11T05:23:14.468Z,100374.59
2023-01-11T05:23:55.419Z,100381.25
2023-01-11T05:24:35.458Z,100383.81
2023-01-11T05:25:16.368Z,100380.72
2023-01-11T05:25:56.461Z,100371.34
2023-01-11T05:26:40.394Z,100379.78
2023-01-11T05:27:20.448Z,100389.16
2023-01-11T05:28:00.387Z,100374.25
2023-01-11T05:28:41.512Z,100389.06
2023-01-11T05:29:27.586Z,100372.72
2023-01-11T05:30:08.497Z,100380.97
2023-01-11T05:30:48.383Z,100369.06
2023-01-11T05:31:29.487Z,100387.88
2023-01-11T05:32:09.386Z,100386.50
2023-01-11T05:32:49.453Z,100374.59
2023-01-11T05:33:29.369Z,100384.88
2023-01-11T05:34:09.603Z,100372.88
2023-01-11T05:34:50.391Z,100381.06
2023-01-11T05:35:30.467Z,100376.84
2023-01-11T05:36:15.401Z,100359.59
2023-01-11T05:37:09.371Z,100373.75
2023-01-11T05:38:03.382Z,100364.59
2023-01-11T05:39:00.374Z,100370.63
2023-01-11T05:39:54.402Z,100353.06
2023-01-11T05:40:49.415Z,100348.94
2023-01-11T05:41:43.370Z,100343.19
2023-01-11T05:42:37.387Z,100352.75
2023-01-11T05:43:31.416Z,100345.25
2023-01-11T05:44:44.415Z,100329.91
2023-01-11T05:45:38.408Z,100357.50
2023-01-11T05:46:18.451Z,100354.22
2023-01-11T05:46:58.378Z,100360.94
2023-01-11T05:47:38.443Z,100348.59
2023-01-11T05:48:21.411Z,100355.59
2023-01-11T05:49:02.482Z,100350.41
2023-01-11T05:49:42.367Z,100322.84
2023-01-11T05:50:23.563Z,100333.44
2023-01-11T05:51:03.371Z,100333.19
2023-01-11T05:51:43.433Z,100340.50
2023-01-11T05:52:24.358Z,100342.59
2023-01-11T05:53:04.547Z,100337.00
2023-01-11T05:53:44.333Z,100340.06
2023-01-11T05:54:24.509Z,100316.03
2023-01-11T05:55:05.455Z,100328.19
2023-01-11T05:55:45.449Z,100347.16
2023-01-11T05:56:28.410Z,100336.47
2023-01-11T05:57:11.543Z,100338.00
2023-01-11T05:57:52.340Z,100313.88
2023-01-11T05:58:33.450Z,100299.13
2023-01-11T05:59:13.375Z,100315.59
2023-01-11T05:59:53.442Z,100305.88
2023-01-11T06:00:33.336Z,100330.25
2023-01-11T06:01:13.422Z,100312.16
2023-01-11T06:01:54.383Z,100312.16
2023-01-11T06:02:34.503Z,100329.56
2023-01-11T06:03:14.420Z,100308.69
2023-01-11T06:03:54.460Z,100327.66
2023-01-11T06:04:34.360Z,100309.66
2023-01-11T06:05:16.436Z,100312.31
2023-01-11T06:05:57.331Z,100323.53
2023-01-11T06:06:38.445Z,100322.75
2023-01-11T06:07:18.363Z,100328.34
2023-01-11T06:08:00.381Z,100303.25
2023-01-11T06:08:40.331Z,100335.72
2023-01-11T06:09:20.397Z,100337.44
2023-01-11T06:10:00.340Z,100302.88
2023-01-11T06:10:54.370Z,100301.06
2023-01-11T06:11:48.327Z,100321.44
2023-01-11T06:12:35.343Z,100309.22
2023-01-11T06:13:27.855Z,100316.09
2023-01-11T06:14:14.324Z,100283.72
2023-01-11T06:14:48.380Z,100305.94
2023-01-11T06:15:35.354Z,100298.06
2023-01-11T06:16:15.544Z,100319.56
2023-01-11T06:17:03.325Z,100321.28
2023-01-11T06:17:44.410Z,100298.53
2023-01-11T06:18:38.331Z,100307.69
2023-01-11T06:19:32.318Z,100297.88
2023-01-11T06:20:26.319Z,100315.88
2023-01-11T06:21:21.370Z,100324.41
2023-01-11T06:22:15.342Z,100328.91
2023-01-11T06:23:02.374Z,100310.44
2023-01-11T06:23:39.406Z,100283.56
2023-01-11T06:24:26.314Z,100305.97
2023-01-11T06:25:00.405Z,100276.53
2023-01-11T06:25:47.324Z,100311.66
2023-01-11T06:26:24.464Z,100290.81
2023-01-11T06:27:11.403Z,100292.88
2023-01-11T06:27:45.435Z,100306.66
2023-01-11T06:28:25.364Z,100304.59
2023-01-11T06:29:05.380Z,100309.44
2023-01-11T06:29:45.331Z,100287.44
2023-01-11T06:30:28.383Z,100292.44
2023-01-11T06:31:09.379Z,100303.88
2023-01-11T06:31:49.408Z,100305.31
2023-01-11T06:32:29.486Z,100286.34
2023-01-11T06:33:10.402Z,100304.75
2023-01-11T06:33:51.313Z,100282.34
2023-01-11T06:34:31.375Z,100279.00
2023-01-11T06:35:12.353Z,100273.91
2023-01-11T06:35:52.412Z,100296.91
2023-01-11T06:36:32.297Z,100297.34
2023-01-11T06:37:12.471Z,100268.56
2023-01-11T06:37:52.407Z,100266.53
2023-01-11T06:38:33.465Z,100282.00
2023-01-11T06:39:14.361Z,100297.53
2023-01-11T06:39:54.352Z,100288.56
2023-01-11T06:40:35.298Z,100278.56
2023-01-11T06:41:16.390Z,100271.75
2023-01-11T06:41:56.304Z,100292.34
2023-01-11T06:42:36.459Z,100252.72
2023-01-11T06:43:17.298Z,100276.34
2023-01-11T06:43:58.386Z,100267.63
2023-01-11T06:44:38.378Z,100288.22
2023-01-11T06:45:32.273Z,100289.41
2023-01-11T06:46:29.163Z,100295.25
2023-01-11T06:47:23.306Z,100301.66
2023-01-11T06:48:18.498Z,100298.03
2023-01-11T06:49:12.318Z,100297.41
2023-01-11T06:49:59.299Z,100306.03
2023-01-11T06:50:33.351Z,100285.09
2023-01-11T06:51:22.309Z,100271.84
2023-01-11T06:51:56.377Z,100306.50
2023-01-11T06:52:43.277Z,100290.19
2023-01-11T06:53:17.317Z,100282.97
2023-01-11T06:54:04.253Z,100261.34
2023-01-11T06:54:38.366Z,100300.34
2023-01-11T06:55:19.324Z,100303.56
2023-01-11T06:56:01.386Z,100313.88
2023-01-11T06:56:41.343Z,100285.91
2023-01-11T06:57:21.369Z,100315.06
2023-01-11T06:58:02.288Z,100304.63
2023-01-11T06:58:42.419Z,100291.53
2023-01-11T06:59:23.276Z,100295.19
2023-01-11T07:00:03.695Z,100317.88
2023-01-11T07:00:44.297Z,100291.69
2023-01-11T07:01:26.543Z,100299.63
2023-01-11T07:02:06.280Z,100300.47
2023-01-11T07:02:46.333Z,100298.75
2023-01-11T07:03:30.282Z,100299.44
2023-01-11T07:04:10.571Z,100305.56
2023-01-11T07:04:50.440Z,100312.91
2023-01-11T07:05:32.777Z,100309.28
2023-01-11T07:06:14.289Z,100282.81
2023-01-11T07:06:55.553Z,100301.69
2023-01-11T07:07:35.477Z,100312.03
2023-01-11T07:08:16.376Z,100317.38
2023-01-11T07:08:56.287Z,100302.00
2023-01-11T07:09:36.567Z,100306.50
2023-01-11T07:10:20.315Z,100308.16
2023-01-11T07:11:01.434Z,100278.84
2023-01-11T07:11:45.323Z,100292.63
2023-01-11T07:12:25.559Z,100299.63
2023-01-11T07:13:05.291Z,100295.13
2023-01-11T07:13:45.363Z,100322.53
2023-01-11T07:14:27.306Z,100316.25
2023-01-11T07:15:12.405Z,100311.84
2023-01-11T07:15:58.370Z,100293.75
2023-01-11T07:16:39.351Z,100322.78
2023-01-11T07:17:19.290Z,100308.25
2023-01-11T07:18:04.387Z,100310.03
2023-01-11T07:18:46.535Z,100295.28
2023-01-11T07:19:27.338Z,100306.34
2023-01-11T07:20:08.259Z,100319.88
2023-01-11T07:20:48.551Z,100304.44
2023-01-11T07:21:28.268Z,100323.16
2023-01-11T07:22:08.331Z,100327.72
2023-01-11T07:22:48.323Z,100290.22
2023-01-11T07:23:28.314Z,100286.00
2023-01-11T07:24:09.294Z,100320.22
2023-01-11T07:24:50.308Z,100301.88
2023-01-11T07:25:31.300Z,100293.75
2023-01-11T07:26:17.276Z,100286.34
2023-01-11T07:26:59.236Z,100295.59
2023-01-11T07:27:39.316Z,100309.09
2023-01-11T07:28:19.309Z,100295.59
2023-01-11T07:29:00.296Z,100278.41
2023-01-11T07:29:40.233Z,100296.59
2023-01-11T07:30:20.357Z,100288.97
2023-01-11T07:31:00.459Z,100291.22
2023-01-11T07:31:40.451Z,100304.91
2023-01-11T07:32:21.246Z,100302.06
2023-01-11T07:33:06.084Z,100291.47
2023-01-11T07:33:47.294Z,100295.59
2023-01-11T07:34:27.313Z,100300.56
2023-01-11T07:35:07.253Z,100285.81
2023-01-11T07:35:47.423Z,100299.19
2023-01-11T07:36:27.238Z,100305.56
2023-01-11T07:37:09.562Z,100266.72
2023-01-11T07:38:09.240Z,100288.97
2023-01-11T07:38:56.257Z,100283.00
2023-01-11T07:39:50.286Z,100317.84
2023-01-11T07:40:44.270Z,100306.41
2023-01-11T07:41:56.272Z,100289.69
2023-01-11T07:43:08.255Z,100290.53
2023-01-11T07:44:02.271Z,100276.19
2023-01-11T07:44:56.216Z,100274.97
2023-01-11T07:45:52.411Z,100294.59
2023-01-11T07:46:46.369Z,100286.28
2023-01-11T07:47:40.257Z,100289.25
2023-01-11T07:48:30.806Z,100289.03
2023-01-11T07:49:12.282Z,100261.63
2023-01-11T07:49:53.300Z,100285.97
2023-01-11T07:50:34.237Z,100300.53
2023-01-11T07:51:16.612Z,100291.34
2023-01-11T07:51:58.233Z,100279.88
2023-01-11T07:52:38.289Z,100283.03
2023-01-11T07:53:19.235Z,100286.97
2023-01-11T07:54:02.432Z,100292.59
2023-01-11T07:54:43.242Z,100269.38
2023-01-11T07:55:24.304Z,100283.13
2023-01-11T07:56:04.254Z,100299.28
2023-01-11T07:56:44.324Z,100271.19
2023-01-11T07:57:24.210Z,100270.06
2023-01-11T07:58:04.332Z,100286.59
2023-01-11T07:58:45.209Z,100259.06
2023-01-11T07:59:25.367Z,100261.56
2023-01-11T08:00:05.239Z,100272.41
2023-01-11T08:00:46.375Z,100281.59
2023-01-11T08:01:27.217Z,100282.84
2023-01-11T08:02:07.315Z,100268.16
2023-01-11T08:02:48.288Z,100277.41
2023-01-11T08:03:28.434Z,100283.34
2023-01-11T08:04:08.211Z,100280.66
2023-01-11T08:04:48.306Z,100251.19
2023-01-11T08:05:29.221Z,100263.53
2023-01-11T08:06:09.350Z,100271.19
2023-01-11T08:06:50.232Z,100246.06
2023-01-11T08:07:30.403Z,100261.72
2023-01-11T08:08:11.228Z,100275.31
2023-01-11T08:08:51.314Z,100282.38
2023-01-11T08:09:31.210Z,100287.94
2023-01-11T08:10:12.249Z,100277.63
2023-01-11T08:10:53.207Z,100279.13
2023-01-11T08:11:52.051Z,100268.78
2023-01-11T08:12:51.675Z,100287.75
2023-01-11T08:14:01.543Z,100282.09
2023-01-11T08:14:47.197Z,100290.78
2023-01-11T08:15:27.297Z,100287.44
2023-01-11T08:16:07.219Z,100274.38
2023-01-11T08:16:47.342Z,100264.13
2023-01-11T08:17:27.251Z,100268.03
2023-01-11T08:18:07.681Z,100274.44
2023-01-11T08:18:47.232Z,100272.53
2023-01-11T08:19:27.276Z,100292.91
2023-01-11T08:20:07.214Z,100272.06
2023-01-11T08:20:47.585Z,100258.31
2023-01-11T08:21:30.210Z,100270.97
2023-01-11T08:22:10.401Z,100274.63
2023-01-11T08:22:50.205Z,100283.44
2023-01-11T08:23:31.230Z,100297.88
2023-01-11T08:24:12.186Z,100287.16
2023-01-11T08:24:52.325Z,100287.44
2023-01-11T08:25:32.179Z,100289.00
2023-01-11T08:26:16.902Z,100299.69
2023-01-11T08:26:57.331Z,100298.25
2023-01-11T08:27:40.580Z,100277.13
2023-01-11T08:28:20.204Z,100283.16
2023-01-11T08:29:01.274Z,100305.34
2023-01-11T08:29:42.227Z,100300.34
2023-01-11T08:30:22.283Z,100279.53
2023-01-11T08:31:02.227Z,100303.19
2023-01-11T08:31:43.237Z,100289.06
2023-01-11T08:32:23.213Z,100285.31
2023-01-11T08:33:03.367Z,100283.59
2023-01-11T08:33:43.191Z,100297.66
2023-01-11T08:34:23.262Z,100303.97
2023-01-11T08:35:03.176Z,100285.53
2023-01-11T08:35:46.260Z,100292.19
2023-01-11T08:36:26.160Z,100296.03
2023-01-11T08:37:06.339Z,100286.19
2023-01-11T08:37:46.185Z,100288.47
2023-01-11T08:38:26.285Z,100287.72
2023-01-11T08:39:07.182Z,100290.19
2023-01-11T08:39:48.495Z,100291.91
2023-01-11T08:40:28.190Z,100292.13
2023-01-11T08:41:11.248Z,100292.88
2023-01-11T08:41:51.177Z,100272.81